sensor_id;sensor_type;location;lat;lon;timestamp;pressure;altitude;pressure_sealevel;temperature;humidity
6433;BME280;3249;42.690;23.260;2022-09-16T00:00:14;93989.28;;;19.99;100.00
6433;BME280;3249;42.690;23.260;2022-09-16T00:02:39;93979.44;;;19.91;100.00
6433;BME280;3249;42.690;23.260;2022-09-16T00:05:05;93987.72;;;19.98;100.00
6433;BME280;3249;42.690;23.260;2022-09-16T00:07:31;93982.91;;;20.10;100.00
6433;BME280;3249;42.690;23.260;2022-09-16T00:09:56;93971.16;;;19.84;100.00
6433;BME280;3249;42.690;23.260;2022-09-16T00:12:21;93981.38;;;20.04;100.00
6433;BME280;3249;42.690;23.260;2022-09-16T00:14:47;93982.00;;;19.96;100.00
6433;BME280;3249;42.690;23.260;2022-09-16T00:17:12;94002.84;;;20.01;100.00
6433;BME280;3249;42.690;23.260;2022-09-16T00:19:38;93998.91;;;20.03;100.00
6433;BME280;3249;42.690;23.260;2022-09-16T00:22:04;93992.72;;;19.94;100.00
6433;BME280;3249;42.690;23.260;2022-09-16T00:24:30;93997.41;;;20.21;100.00
6433;BME280;3249;42.690;23.260;2022-09-16T00:26:55;93989.47;;;20.26;100.00
6433;BME280;3249;42.690;23.260;2022-09-16T00:29:21;93975.19;;;20.18;100.00
6433;BME280;3249;42.690;23.260;2022-09-16T00:31:46;93975.53;;;20.30;100.00
6433;BME280;3249;42.690;23.260;2022-09-16T00:34:11;93979.03;;;20.26;100.00
6433;BME280;3249;42.690;23.260;2022-09-16T00:36:37;93972.25;;;20.01;100.00
6433;BME280;3249;42.690;23.260;2022-09-16T00:39:02;93978.06;;;19.75;100.00
6433;BME280;3249;42.690;23.260;2022-09-16T00:41:29;93969.41;;;19.56;100.00
6433;BME280;3249;42.690;23.260;2022-09-16T00:47:07;93973.94;;;19.69;100.00
6433;BME280;3249;42.690;23.260;2022-09-16T00:49:32;93982.41;;;19.61;100.00
6433;BME280;3249;42.690;23.260;2022-09-16T00:52:04;93984.72;;;19.67;100.00
6433;BME280;3249;42.690;23.260;2022-09-16T00:54:32;93977.91;;;19.43;100.00
6433;BME280;3249;42.690;23.260;2022-09-16T00:57:01;93984.94;;;19.47;100.00
6433;BME280;3249;42.690;23.260;2022-09-16T00:59:27;93989.13;;;19.67;100.00
6433;BME280;3249;42.690;23.260;2022-09-16T01:01:58;93991.53;;;19.63;100.00
6433;BME280;3249;42.690;23.260;2022-09-16T01:05:04;93977.19;;;19.61;100.00
6433;BME280;3249;42.690;23.260;2022-09-16T01:07:38;93973.03;;;19.60;100.00
6433;BME280;3249;42.690;23.260;2022-09-16T01:10:05;93987.31;;;19.67;100.00
6433;BME280;3249;42.690;23.260;2022-09-16T01:12:32;93992.69;;;19.52;100.00
6433;BME280;3249;42.690;23.260;2022-09-16T01:14:59;93990.47;;;19.41;100.00
6433;BME280;3249;42.690;23.260;2022-09-16T01:17:35;93987.16;;;19.30;100.00
6433;BME280;3249;42.690;23.260;2022-09-16T01:20:25;93970.69;;;19.06;100.00
6433;BME280;3249;42.690;23.260;2022-09-16T01:31:33;93993.41;;;19.34;100.00
6433;BME280;3249;42.690;23.260;2022-09-16T01:37:03;93989.97;;;19.39;100.00
6433;BME280;3249;42.690;23.260;2022-09-16T01:53:17;93984.75;;;19.62;100.00
6433;BME280;3249;42.690;23.260;2022-09-16T01:55:53;93985.31;;;19.59;100.00
6433;BME280;3249;42.690;23.260;2022-09-16T01:58:28;93942.50;;;19.03;100.00
6433;BME280;3249;42.690;23.260;2022-09-16T02:01:01;93949.59;;;19.03;100.00
6433;BME280;3249;42.690;23.260;2022-09-16T02:03:33;93963.25;;;19.18;100.00
6433;BME280;3249;42.690;23.260;2022-09-16T02:06:13;93958.16;;;19.08;100.00
6433;BME280;3249;42.690;23.260;2022-09-16T02:09:03;93960.09;;;18.93;100.00
6433;BME280;3249;42.690;23.260;2022-09-16T02:11:30;93965.50;;;19.01;100.00
6433;BME280;3249;42.690;23.260;2022-09-16T02:14:17;93960.97;;;19.12;100.00
6433;BME280;3249;42.690;23.260;2022-09-16T02:16:49;93969.88;;;19.11;100.00
6433;BME280;3249;42.690;23.260;2022-09-16T02:19:21;93952.53;;;18.91;100.00
6433;BME280;3249;42.690;23.260;2022-09-16T02:21:51;93961.97;;;19.16;100.00
6433;BME280;3249;42.690;23.260;2022-09-16T02:24:19;93959.88;;;19.18;100.00
6433;BME280;3249;42.690;23.260;2022-09-16T02:26:56;93964.41;;;19.36;100.00
6433;BME280;3249;42.690;23.260;2022-09-16T02:29:30;93969.91;;;19.34;100.00
6433;BME280;3249;42.690;23.260;2022-09-16T02:31:59;93960.78;;;19.32;100.00
6433;BME280;3249;42.690;23.260;2022-09-16T02:34:31;93974.53;;;19.42;100.00
6433;BME280;3249;42.690;23.260;2022-09-16T02:37:07;93983.00;;;19.53;100.00
6433;BME280;3249;42.690;23.260;2022-09-16T02:39:37;93974.41;;;19.29;100.00
6433;BME280;3249;42.690;23.260;2022-09-16T02:42:04;93970.25;;;19.28;100.00
6433;BME280;3249;42.690;23.260;2022-09-16T02:44:30;93975.81;;;19.16;100.00
6433;BME280;3249;42.690;23.260;2022-09-16T02:47:00;93979.44;;;19.15;100.00
6433;BME280;3249;42.690;23.260;2022-09-16T02:55:02;93988.66;;;19.08;100.00
6433;BME280;3249;42.690;23.260;2022-09-16T02:57:29;93973.81;;;19.08;100.00
6433;BME280;3249;42.690;23.260;2022-09-16T02:59:55;94003.84;;;19.34;100.00
6433;BME280;3249;42.690;23.260;2022-09-16T03:02:21;94006.31;;;19.49;100.00
6433;BME280;3249;42.690;23.260;2022-09-16T03:04:46;94017.63;;;19.40;100.00
6433;BME280;3249;42.690;23.260;2022-09-16T03:07:13;93997.69;;;19.49;100.00
6433;BME280;3249;42.690;23.260;2022-09-16T03:09:42;94008.25;;;19.39;100.00
6433;BME280;3249;42.690;23.260;2022-09-16T03:20:46;94021.03;;;19.64;100.00
6433;BME280;3249;42.690;23.260;2022-09-16T03:28:49;94016.00;;;19.44;100.00
6433;BME280;3249;42.690;23.260;2022-09-16T03:34:20;94014.72;;;19.70;100.00
6433;BME280;3249;42.690;23.260;2022-09-16T03:36:52;93984.28;;;19.32;100.00
6433;BME280;3249;42.690;23.260;2022-09-16T03:39:20;94009.31;;;19.61;100.00
6433;BME280;3249;42.690;23.260;2022-09-16T03:41:46;93996.06;;;19.29;100.00
6433;BME280;3249;42.690;23.260;2022-09-16T03:44:12;93978.59;;;19.30;100.00
6433;BME280;3249;42.690;23.260;2022-09-16T03:46:38;93960.38;;;18.91;100.00
6433;BME280;3249;42.690;23.260;2022-09-16T03:49:03;93971.47;;;19.07;100.00
6433;BME280;3249;42.690;23.260;2022-09-16T03:51:29;93972.00;;;19.04;100.00
6433;BME280;3249;42.690;23.260;2022-09-16T03:53:54;93964.97;;;19.04;100.00
6433;BME280;3249;42.690;23.260;2022-09-16T03:56:22;93987.50;;;19.24;100.00
6433;BME280;3249;42.690;23.260;2022-09-16T03:58:47;93980.03;;;19.12;100.00
6433;BME280;3249;42.690;23.260;2022-09-16T04:01:13;93988.94;;;19.06;100.00
6433;BME280;3249;42.690;23.260;2022-09-16T04:03:39;93990.69;;;19.16;100.00
6433;BME280;3249;42.690;23.260;2022-09-16T04:06:05;94007.28;;;19.30;100.00
6433;BME280;3249;42.690;23.260;2022-09-16T04:08:31;94004.84;;;19.38;100.00
6433;BME280;3249;42.690;23.260;2022-09-16T04:11:01;94025.25;;;19.60;100.00
6433;BME280;3249;42.690;23.260;2022-09-16T04:13:31;94030.09;;;19.71;100.00
6433;BME280;3249;42.690;23.260;2022-09-16T04:15:58;94025.53;;;19.82;100.00
6433;BME280;3249;42.690;23.260;2022-09-16T04:18:24;94027.56;;;19.85;100.00
6433;BME280;3249;42.690;23.260;2022-09-16T04:20:49;94033.59;;;19.62;100.00
6433;BME280;3249;42.690;23.260;2022-09-16T04:23:15;94022.84;;;19.40;100.00
6433;BME280;3249;42.690;23.260;2022-09-16T04:25:40;94052.28;;;19.74;100.00
6433;BME280;3249;42.690;23.260;2022-09-16T04:28:06;94048.53;;;19.80;100.00
6433;BME280;3249;42.690;23.260;2022-09-16T04:30:32;94051.19;;;19.98;100.00
6433;BME280;3249;42.690;23.260;2022-09-16T04:32:57;94056.88;;;20.05;100.00
6433;BME280;3249;42.690;23.260;2022-09-16T04:35:23;94029.19;;;20.04;100.00
6433;BME280;3249;42.690;23.260;2022-09-16T04:37:49;94049.09;;;20.00;100.00
6433;BME280;3249;42.690;23.260;2022-09-16T04:40:15;94045.78;;;19.95;100.00
6433;BME280;3249;42.690;23.260;2022-09-16T04:42:46;94034.63;;;20.08;100.00
6433;BME280;3249;42.690;23.260;2022-09-16T04:45:12;94049.06;;;20.29;100.00
6433;BME280;3249;42.690;23.260;2022-09-16T04:47:37;94051.19;;;19.98;100.00
6433;BME280;3249;42.690;23.260;2022-09-16T04:50:03;94043.66;;;19.97;100.00
6433;BME280;3249;42.690;23.260;2022-09-16T04:52:29;94066.25;;;20.11;100.00
6433;BME280;3249;42.690;23.260;2022-09-16T04:54:55;94066.25;;;20.06;100.00
6433;BME280;3249;42.690;23.260;2022-09-16T04:57:20;94066.41;;;20.20;100.00
6433;BME280;3249;42.690;23.260;2022-09-16T04:59:45;94061.53;;;20.32;100.00
6433;BME280;3249;42.690;23.260;2022-09-16T05:02:11;94059.97;;;20.54;100.00
6433;BME280;3249;42.690;23.260;2022-09-16T05:04:36;94054.03;;;20.67;100.00
6433;BME280;3249;42.690;23.260;2022-09-16T05:07:02;94039.94;;;20.63;100.00
6433;BME280;3249;42.690;23.260;2022-09-16T05:09:27;94046.88;;;20.73;100.00
6433;BME280;3249;42.690;23.260;2022-09-16T05:11:53;94042.84;;;20.80;100.00
6433;BME280;3249;42.690;23.260;2022-09-16T05:14:18;94046.34;;;20.89;100.00
6433;BME280;3249;42.690;23.260;2022-09-16T05:16:44;94048.06;;;20.99;100.00
6433;BME280;3249;42.690;23.260;2022-09-16T05:19:12;94048.78;;;21.04;100.00
6433;BME280;3249;42.690;23.260;2022-09-16T05:21:38;94058.19;;;21.37;100.00
6433;BME280;3249;42.690;23.260;2022-09-16T05:24:07;94035.97;;;21.35;100.00
6433;BME280;3249;42.690;23.260;2022-09-16T05:26:34;94029.09;;;21.39;100.00
6433;BME280;3249;42.690;23.260;2022-09-16T05:29:01;94055.78;;;21.41;100.00
6433;BME280;3249;42.690;23.260;2022-09-16T05:31:29;94054.44;;;21.57;100.00
6433;BME280;3249;42.690;23.260;2022-09-16T05:33:57;94042.56;;;21.78;100.00
6433;BME280;3249;42.690;23.260;2022-09-16T05:36:24;94035.00;;;21.90;100.00
6433;BME280;3249;42.690;23.260;2022-09-16T05:38:49;94027.63;;;22.06;100.00
6433;BME280;3249;42.690;23.260;2022-09-16T05:41:15;94029.91;;;22.21;97.74
6433;BME280;3249;42.690;23.260;2022-09-16T05:43:41;94027.56;;;22.33;93.02
6433;BME280;3249;42.690;23.260;2022-09-16T05:46:06;94033.03;;;22.36;88.79
6433;BME280;3249;42.690;23.260;2022-09-16T05:48:33;94024.50;;;22.17;92.38
6433;BME280;3249;42.690;23.260;2022-09-16T05:51:05;94008.38;;;22.10;96.32
6433;BME280;3249;42.690;23.260;2022-09-16T05:53:32;94029.94;;;22.07;100.00
6433;BME280;3249;42.690;23.260;2022-09-16T05:56:01;94032.47;;;21.98;100.00
6433;BME280;3249;42.690;23.260;2022-09-16T05:58:28;94031.16;;;22.37;100.00
6433;BME280;3249;42.690;23.260;2022-09-16T06:00:58;94034.28;;;22.52;100.00
6433;BME280;3249;42.690;23.260;2022-09-16T06:03:24;94033.75;;;22.64;100.00
6433;BME280;3249;42.690;23.260;2022-09-16T06:05:51;94039.13;;;22.45;100.00
6433;BME280;3249;42.690;23.260;2022-09-16T06:08:16;94036.78;;;22.44;100.00
6433;BME280;3249;42.690;23.260;2022-09-16T06:10:42;94035.38;;;22.51;100.00
6433;BME280;3249;42.690;23.260;2022-09-16T06:13:07;94030.69;;;22.48;100.00
6433;BME280;3249;42.690;23.260;2022-09-16T06:15:33;94016.03;;;22.34;96.46
6433;BME280;3249;42.690;23.260;2022-09-16T06:17:59;94030.81;;;22.79;90.09
6433;BME280;3249;42.690;23.260;2022-09-16T06:20:25;94031.66;;;23.10;81.50
6433;BME280;3249;42.690;23.260;2022-09-16T06:22:50;94009.41;;;23.07;82.59
6433;BME280;3249;42.690;23.260;2022-09-16T06:25:17;94033.59;;;22.82;80.59
6433;BME280;3249;42.690;23.260;2022-09-16T06:27:42;94023.97;;;22.91;77.39
6433;BME280;3249;42.690;23.260;2022-09-16T06:30:08;94029.91;;;23.05;75.42
6433;BME280;3249;42.690;23.260;2022-09-16T06:32:34;94012.25;;;22.97;78.29
6433;BME280;3249;42.690;23.260;2022-09-16T06:34:59;94028.75;;;22.76;79.80
6433;BME280;3249;42.690;23.260;2022-09-16T06:37:24;94021.13;;;22.88;81.32
6433;BME280;3249;42.690;23.260;2022-09-16T06:39:50;94035.06;;;22.88;84.24
6433;BME280;3249;42.690;23.260;2022-09-16T06:42:16;94031.50;;;22.71;86.70
6433;BME280;3249;42.690;23.260;2022-09-16T06:44:41;94047.28;;;22.93;83.68
6433;BME280;3249;42.690;23.260;2022-09-16T06:47:07;94033.75;;;22.99;79.31
6433;BME280;3249;42.690;23.260;2022-09-16T06:49:32;94038.44;;;23.24;75.34
6433;BME280;3249;42.690;23.260;2022-09-16T06:51:58;94052.22;;;23.60;73.03
6433;BME280;3249;42.690;23.260;2022-09-16T06:54:23;94025.81;;;23.13;74.58
6433;BME280;3249;42.690;23.260;2022-09-16T06:56:49;94046.22;;;23.16;73.57
6433;BME280;3249;42.690;23.260;2022-09-16T06:59:14;94029.44;;;23.03;73.79
6433;BME280;3249;42.690;23.260;2022-09-16T07:01:40;94044.84;;;23.18;73.61
6433;BME280;3249;42.690;23.260;2022-09-16T07:04:08;94036.31;;;23.35;74.76
6433;BME280;3249;42.690;23.260;2022-09-16T07:06:37;94041.63;;;23.21;73.80
6433;BME280;3249;42.690;23.260;2022-09-16T07:09:03;94045.81;;;23.22;72.71
6433;BME280;3249;42.690;23.260;2022-09-16T07:11:28;94046.88;;;23.43;72.26
6433;BME280;3249;42.690;23.260;2022-09-16T07:13:54;94060.19;;;23.77;70.60
6433;BME280;3249;42.690;23.260;2022-09-16T07:16:22;94042.41;;;23.44;71.72
6433;BME280;3249;42.690;23.260;2022-09-16T07:18:54;94047.56;;;23.88;71.49
6433;BME280;3249;42.690;23.260;2022-09-16T07:21:22;94049.09;;;24.19;70.91
6433;BME280;3249;42.690;23.260;2022-09-16T07:23:49;94035.88;;;23.94;70.00
6433;BME280;3249;42.690;23.260;2022-09-16T07:26:20;94038.72;;;23.75;71.00
6433;BME280;3249;42.690;23.260;2022-09-16T07:28:47;94045.13;;;23.61;72.08
6433;BME280;3249;42.690;23.260;2022-09-16T07:31:16;94040.69;;;23.70;71.70
6433;BME280;3249;42.690;23.260;2022-09-16T07:33:44;94054.63;;;23.79;68.12
6433;BME280;3249;42.690;23.260;2022-09-16T07:36:11;94039.81;;;23.83;68.61
6433;BME280;3249;42.690;23.260;2022-09-16T07:38:37;94033.00;;;23.82;71.42
6433;BME280;3249;42.690;23.260;2022-09-16T07:41:14;94026.06;;;23.86;70.93
6433;BME280;3249;42.690;23.260;2022-09-16T07:43:41;94013.06;;;23.89;71.34
6433;BME280;3249;42.690;23.260;2022-09-16T07:46:08;94017.91;;;23.96;70.55
6433;BME280;3249;42.690;23.260;2022-09-16T07:48:34;94017.66;;;24.06;70.31
6433;BME280;3249;42.690;23.260;2022-09-16T07:51:05;94014.78;;;24.41;66.81
6433;BME280;3249;42.690;23.260;2022-09-16T07:53:31;94008.94;;;24.61;64.39
6433;BME280;3249;42.690;23.260;2022-09-16T07:56:02;94028.88;;;24.45;65.99
6433;BME280;3249;42.690;23.260;2022-09-16T07:58:28;94001.53;;;24.72;63.48
6433;BME280;3249;42.690;23.260;2022-09-16T08:00:53;94015.47;;;25.06;62.50
6433;BME280;3249;42.690;23.260;2022-09-16T08:03:18;94023.84;;;24.74;63.73
6433;BME280;3249;42.690;23.260;2022-09-16T08:05:44;94016.47;;;24.29;66.39
6433;BME280;3249;42.690;23.260;2022-09-16T08:08:09;94012.63;;;24.60;64.00
6433;BME280;3249;42.690;23.260;2022-09-16T08:10:35;94007.09;;;24.96;63.63
6433;BME280;3249;42.690;23.260;2022-09-16T08:13:05;94000.13;;;24.83;62.40
6433;BME280;3249;42.690;23.260;2022-09-16T08:15:31;93989.59;;;24.83;66.07
6433;BME280;3249;42.690;23.260;2022-09-16T08:17:57;93991.88;;;25.35;61.29
6433;BME280;3249;42.690;23.260;2022-09-16T08:20:23;94008.44;;;25.44;63.11
6433;BME280;3249;42.690;23.260;2022-09-16T08:22:50;94007.00;;;25.55;63.35
6433;BME280;3249;42.690;23.260;2022-09-16T08:25:15;94010.25;;;25.52;61.53
6433;BME280;3249;42.690;23.260;2022-09-16T08:27:41;94001.47;;;25.86;56.96
6433;BME280;3249;42.690;23.260;2022-09-16T08:30:07;93993.31;;;25.70;59.46
6433;BME280;3249;42.690;23.260;2022-09-16T08:32:33;94005.16;;;25.93;58.62
6433;BME280;3249;42.690;23.260;2022-09-16T08:34:58;93999.38;;;26.38;55.33
6433;BME280;3249;42.690;23.260;2022-09-16T08:37:23;94001.13;;;26.75;54.65
6433;BME280;3249;42.690;23.260;2022-09-16T08:39:49;93993.53;;;26.94;52.90
6433;BME280;3249;42.690;23.260;2022-09-16T08:42:52;93989.16;;;26.57;54.75
6433;BME280;3249;42.690;23.260;2022-09-16T08:48:19;93997.66;;;26.83;51.99
6433;BME280;3249;42.690;23.260;2022-09-16T08:50:48;93987.22;;;26.86;52.25
6433;BME280;3249;42.690;23.260;2022-09-16T08:53:48;93981.91;;;27.07;50.75
6433;BME280;3249;42.690;23.260;2022-09-16T08:56:10;93990.28;;;27.09;50.34
6433;BME280;3249;42.690;23.260;2022-09-16T08:58:49;93993.75;;;27.21;49.30
6433;BME280;3249;42.690;23.260;2022-09-16T09:01:35;93994.91;;;26.79;52.04
6433;BME280;3249;42.690;23.260;2022-09-16T09:04:03;93979.84;;;26.59;52.37
6433;BME280;3249;42.690;23.260;2022-09-16T09:20:02;93986.88;;;26.47;56.13
6433;BME280;3249;42.690;23.260;2022-09-16T09:25:49;93994.59;;;26.31;53.49
6433;BME280;3249;42.690;23.260;2022-09-16T09:47:39;94003.97;;;26.20;58.99
6433;BME280;3249;42.690;23.260;2022-09-16T09:55:33;94012.44;;;25.97;60.41
6433;BME280;3249;42.690;23.260;2022-09-16T10:00:24;94003.94;;;25.91;66.14
6433;BME280;3249;42.690;23.260;2022-09-16T10:02:50;94044.97;;;26.18;67.09
6433;BME280;3249;42.690;23.260;2022-09-16T10:05:27;94050.16;;;26.06;70.53
6433;BME280;3249;42.690;23.260;2022-09-16T10:08:04;94047.84;;;25.96;74.90
6433;BME280;3249;42.690;23.260;2022-09-16T10:10:32;94054.53;;;25.84;78.32
6433;BME280;3249;42.690;23.260;2022-09-16T10:13:09;94065.44;;;25.74;84.02
6433;BME280;3249;42.690;23.260;2022-09-16T10:15:35;94075.88;;;25.62;89.75
6433;BME280;3249;42.690;23.260;2022-09-16T10:18:09;94093.56;;;25.36;87.88
6433;BME280;3249;42.690;23.260;2022-09-16T10:20:38;94143.13;;;25.00;96.19
6433;BME280;3249;42.690;23.260;2022-09-16T10:23:08;94127.22;;;23.88;100.00
6433;BME280;3249;42.690;23.260;2022-09-16T10:25:35;94140.94;;;23.33;100.00
6433;BME280;3249;42.690;23.260;2022-09-16T10:28:16;94158.16;;;22.90;100.00
6433;BME280;3249;42.690;23.260;2022-09-16T10:30:53;94167.84;;;22.35;100.00
6433;BME280;3249;42.690;23.260;2022-09-16T10:33:29;94176.25;;;21.91;100.00
6433;BME280;3249;42.690;23.260;2022-09-16T10:36:02;94170.28;;;21.54;100.00
6433;BME280;3249;42.690;23.260;2022-09-16T10:38:41;94178.47;;;21.34;100.00
6433;BME280;3249;42.690;23.260;2022-09-16T10:41:29;94191.31;;;21.12;100.00
6433;BME280;3249;42.690;23.260;2022-09-16T10:46:18;94177.00;;;20.86;100.00
6433;BME280;3249;42.690;23.260;2022-09-16T10:48:45;94185.94;;;20.61;100.00
6433;BME280;3249;42.690;23.260;2022-09-16T10:51:26;94166.78;;;20.42;100.00
6433;BME280;3249;42.690;23.260;2022-09-16T10:53:54;94159.91;;;20.28;100.00
6433;BME280;3249;42.690;23.260;2022-09-16T10:56:23;94157.25;;;20.33;100.00
6433;BME280;3249;42.690;23.260;2022-09-16T10:59:00;94131.59;;;20.35;100.00
6433;BME280;3249;42.690;23.260;2022-09-16T11:07:36;94013.84;;;20.21;100.00
6433;BME280;3249;42.690;23.260;2022-09-16T11:19:22;94030.72;;;22.08;100.00
6433;BME280;3249;42.690;23.260;2022-09-16T11:22:03;94016.91;;;22.29;100.00
6433;BME280;3249;42.690;23.260;2022-09-16T11:30:08;93994.47;;;22.94;100.00
6433;BME280;3249;42.690;23.260;2022-09-16T11:40:58;93982.16;;;23.56;100.00
6433;BME280;3249;42.690;23.260;2022-09-16T11:49:33;93973.22;;;24.04;100.00
6433;BME280;3249;42.690;23.260;2022-09-16T11:55:19;93977.34;;;24.70;100.00
6433;BME280;3249;42.690;23.260;2022-09-16T11:57:52;93961.38;;;24.58;96.96
6433;BME280;3249;42.690;23.260;2022-09-16T12:00:20;93960.19;;;23.52;100.00
6433;BME280;3249;42.690;23.260;2022-09-16T12:03:04;93954.81;;;22.74;100.00
6433;BME280;3249;42.690;23.260;2022-09-16T12:08:14;93984.81;;;22.81;100.00
6433;BME280;3249;42.690;23.260;2022-09-16T12:14:09;93994.09;;;22.65;100.00
6433;BME280;3249;42.690;23.260;2022-09-16T12:17:03;94009.97;;;22.82;100.00
6433;BME280;3249;42.690;23.260;2022-09-16T12:19:35;94000.19;;;22.52;100.00
6433;BME280;3249;42.690;23.260;2022-09-16T12:22:08;93998.44;;;22.48;100.00
6433;BME280;3249;42.690;23.260;2022-09-16T12:24:42;93994.81;;;22.57;100.00
6433;BME280;3249;42.690;23.260;2022-09-16T12:27:38;93999.28;;;22.57;100.00
6433;BME280;3249;42.690;23.260;2022-09-16T12:30:16;93997.44;;;22.44;100.00
6433;BME280;3249;42.690;23.260;2022-09-16T12:35:21;93999.88;;;22.40;100.00
6433;BME280;3249;42.690;23.260;2022-09-16T12:37:50;94002.69;;;22.57;100.00
6433;BME280;3249;42.690;23.260;2022-09-16T12:59:53;94058.66;;;22.39;100.00
6433;BME280;3249;42.690;23.260;2022-09-16T13:02:05;94048.84;;;22.45;100.00
6433;BME280;3249;42.690;23.260;2022-09-16T13:04:41;94074.50;;;22.61;100.00
6433;BME280;3249;42.690;23.260;2022-09-16T13:07:19;94064.69;;;22.53;100.00
6433;BME280;3249;42.690;23.260;2022-09-16T13:09:45;94081.38;;;22.44;100.00
6433;BME280;3249;42.690;23.260;2022-09-16T13:12:25;94108.34;;;22.49;100.00
6433;BME280;3249;42.690;23.260;2022-09-16T13:14:59;94112.19;;;22.25;100.00
6433;BME280;3249;42.690;23.260;2022-09-16T13:17:31;94104.53;;;22.01;100.00
6433;BME280;3249;42.690;23.260;2022-09-16T13:20:17;94101.94;;;21.69;100.00
6433;BME280;3249;42.690;23.260;2022-09-16T13:30:51;94085.09;;;21.24;100.00
6433;BME280;3249;42.690;23.260;2022-09-16T13:35:47;94059.16;;;21.28;100.00
6433;BME280;3249;42.690;23.260;2022-09-16T13:40:40;94029.50;;;21.46;100.00
6433;BME280;3249;42.690;23.260;2022-09-16T13:43:30;93984.19;;;21.32;100.00
6433;BME280;3249;42.690;23.260;2022-09-16T13:46:01;93967.81;;;21.40;100.00
6433;BME280;3249;42.690;23.260;2022-09-16T13:48:34;93955.38;;;21.59;100.00
6433;BME280;3249;42.690;23.260;2022-09-16T13:51:07;93979.06;;;21.67;100.00
6433;BME280;3249;42.690;23.260;2022-09-16T13:53:36;93970.44;;;21.94;100.00
6433;BME280;3249;42.690;23.260;2022-09-16T13:59:04;93972.25;;;22.07;100.00
6433;BME280;3249;42.690;23.260;2022-09-16T14:01:42;93966.69;;;22.22;100.00
6433;BME280;3249;42.690;23.260;2022-09-16T14:10:00;93965.50;;;22.42;100.00
6433;BME280;3249;42.690;23.260;2022-09-16T14:15:09;94018.78;;;21.88;100.00
6433;BME280;3249;42.690;23.260;2022-09-16T14:17:42;94015.97;;;21.71;100.00
6433;BME280;3249;42.690;23.260;2022-09-16T14:20:21;94029.06;;;21.84;100.00
6433;BME280;3249;42.690;23.260;2022-09-16T14:22:47;94012.28;;;21.85;100.00
6433;BME280;3249;42.690;23.260;2022-09-16T14:25:35;93991.09;;;21.68;100.00
6433;BME280;3249;42.690;23.260;2022-09-16T14:28:17;93994.00;;;21.67;100.00
6433;BME280;3249;42.690;23.260;2022-09-16T14:30:59;93980.91;;;21.94;100.00
6433;BME280;3249;42.690;23.260;2022-09-16T14:33:31;93967.13;;;21.75;100.00
6433;BME280;3249;42.690;23.260;2022-09-16T14:35:58;93978.38;;;22.16;100.00
6433;BME280;3249;42.690;23.260;2022-09-16T14:38:39;93979.22;;;22.25;100.00
6433;BME280;3249;42.690;23.260;2022-09-16T14:41:07;93982.56;;;22.39;100.00
6433;BME280;3249;42.690;23.260;2022-09-16T14:43:36;93982.94;;;22.24;100.00
6433;BME280;3249;42.690;23.260;2022-09-16T14:46:05;93985.28;;;22.12;100.00
6433;BME280;3249;42.690;23.260;2022-09-16T14:48:36;93985.75;;;22.14;100.00
6433;BME280;3249;42.690;23.260;2022-09-16T14:51:17;93975.38;;;22.09;100.00
6433;BME280;3249;42.690;23.260;2022-09-16T14:53:55;93981.13;;;21.98;100.00
6433;BME280;3249;42.690;23.260;2022-09-16T14:56:21;93992.88;;;21.86;100.00
6433;BME280;3249;42.690;23.260;2022-09-16T14:58:47;93997.03;;;21.74;100.00
6433;BME280;3249;42.690;23.260;2022-09-16T15:01:21;93999.84;;;21.64;100.00
6433;BME280;3249;42.690;23.260;2022-09-16T15:04:15;93997.69;;;21.66;100.00
6433;BME280;3249;42.690;23.260;2022-09-16T15:06:46;93987.41;;;21.56;100.00
6433;BME280;3249;42.690;23.260;2022-09-16T15:09:42;93994.78;;;21.67;100.00
6433;BME280;3249;42.690;23.260;2022-09-16T15:12:16;93986.09;;;21.72;100.00
6433;BME280;3249;42.690;23.260;2022-09-16T15:14:43;93971.19;;;21.67;100.00
6433;BME280;3249;42.690;23.260;2022-09-16T15:17:17;93990.16;;;21.78;100.00
6433;BME280;3249;42.690;23.260;2022-09-16T15:19:49;93997.44;;;21.81;100.00
6433;BME280;3249;42.690;23.260;2022-09-16T15:22:16;93973.84;;;21.81;100.00
6433;BME280;3249;42.690;23.260;2022-09-16T15:24:42;93924.44;;;21.88;100.00
6433;BME280;3249;42.690;23.260;2022-09-16T15:27:08;93870.09;;;21.80;100.00
6433;BME280;3249;42.690;23.260;2022-09-16T15:29:40;93885.81;;;21.80;100.00
6433;BME280;3249;42.690;23.260;2022-09-16T15:34:36;93901.97;;;21.95;100.00
6433;BME280;3249;42.690;23.260;2022-09-16T15:37:01;93893.44;;;21.90;100.00
6433;BME280;3249;42.690;23.260;2022-09-16T15:39:30;93903.78;;;21.73;100.00
6433;BME280;3249;42.690;23.260;2022-09-16T15:44:35;93896.97;;;21.18;100.00
6433;BME280;3249;42.690;23.260;2022-09-16T15:47:01;93893.56;;;21.04;100.00
6433;BME280;3249;42.690;23.260;2022-09-16T15:49:28;93886.59;;;20.99;100.00
6433;BME280;3249;42.690;23.260;2022-09-16T15:52:04;93882.38;;;20.85;100.00
6433;BME280;3249;42.690;23.260;2022-09-16T15:54:36;93858.25;;;20.56;100.00
6433;BME280;3249;42.690;23.260;2022-09-16T15:57:28;93858.13;;;20.79;100.00
6433;BME280;3249;42.690;23.260;2022-09-16T16:05:09;93855.97;;;20.54;100.00
6433;BME280;3249;42.690;23.260;2022-09-16T16:07:42;93862.06;;;20.63;100.00
6433;BME280;3249;42.690;23.260;2022-09-16T16:12:46;93849.44;;;20.01;100.00
6433;BME280;3249;42.690;23.260;2022-09-16T16:15:15;93845.78;;;20.21;100.00
6433;BME280;3249;42.690;23.260;2022-09-16T16:17:42;93842.59;;;20.24;100.00
6433;BME280;3249;42.690;23.260;2022-09-16T16:20:10;93837.28;;;20.29;100.00
6433;BME280;3249;42.690;23.260;2022-09-16T16:22:38;93846.91;;;20.15;100.00
6433;BME280;3249;42.690;23.260;2022-09-16T16:25:06;93832.84;;;20.11;100.00
6433;BME280;3249;42.690;23.260;2022-09-16T16:27:32;93842.94;;;19.99;100.00
6433;BME280;3249;42.690;23.260;2022-09-16T16:29:57;93835.25;;;20.07;100.00
6433;BME280;3249;42.690;23.260;2022-09-16T16:32:23;93821.69;;;19.87;100.00
6433;BME280;3249;42.690;23.260;2022-09-16T16:34:49;93819.44;;;19.80;100.00
6433;BME280;3249;42.690;23.260;2022-09-16T16:37:15;93822.25;;;19.84;100.00
6433;BME280;3249;42.690;23.260;2022-09-16T16:39:52;93799.94;;;19.73;100.00